Time;durP1;ratioP1;P1;durP2;ratioP2;P2;SDS_P1;SDS_P2;PMS_P1;PMS_P2;Temp;Humidity;BMP_temperature;BMP_pressure;BME280_temperature;BME280_humidity;BME280_pressure;Samples;Min_cycle;Max_cycle;Signal;HPM_P1;HPM_P2
2023/11/30 00:01:43;;;;;;;12.35;5.30;;;1.90;99.90;;;;;;5047295;28;21282;-63
2023/11/30 00:04:11;;;;;;;10.97;4.83;;;1.90;99.90;;;;;;5046903;28;20355;-61
2023/11/30 00:06:40;;;;;;;13.07;4.93;;;1.90;99.90;;;;;;5048623;28;20527;-60
2023/11/30 00:09:08;;;;;;;10.60;4.87;;;1.80;99.90;;;;;;5048365;28;20545;-58
2023/11/30 00:11:36;;;;;;;12.53;5.33;;;1.60;99.90;;;;;;5048571;28;20470;-63
2023/11/30 00:14:04;;;;;;;13.30;5.47;;;1.50;99.90;;;;;;5047834;28;20454;-58
2023/11/30 00:16:32;;;;;;;11.50;5.20;;;1.50;99.90;;;;;;5048456;28;20467;-61
2023/11/30 00:19:01;;;;;;;10.77;4.50;;;1.50;99.90;;;;;;5047418;28;20451;-63
2023/11/30 00:21:29;;;;;;;12.03;5.67;;;1.50;99.90;;;;;;5047168;28;20509;-64
2023/11/30 00:23:57;;;;;;;11.80;5.40;;;1.40;99.90;;;;;;5046501;28;20480;-62
2023/11/30 00:26:25;;;;;;;12.38;5.00;;;1.40;99.90;;;;;;5055153;28;20553;-64
2023/11/30 00:28:53;;;;;;;9.65;4.60;;;1.30;99.90;;;;;;5046646;28;20263;-64
2023/11/30 00:31:21;;;;;;;10.65;5.28;;;1.10;99.90;;;;;;5055298;28;20737;-64
2023/11/30 00:33:49;;;;;;;12.57;5.70;;;1.10;99.90;;;;;;5038643;28;20313;-63
2023/11/30 00:36:19;;;;;;;11.25;5.25;;;1.10;99.90;;;;;;5046383;28;20202;-64
2023/11/30 00:38:47;;;;;;;11.52;5.00;;;1.00;99.90;;;;;;5047176;28;20207;-63
2023/11/30 00:41:15;;;;;;;10.80;4.25;;;1.00;99.90;;;;;;5047101;28;20227;-61
2023/11/30 00:43:43;;;;;;;10.40;4.88;;;1.00;99.90;;;;;;5046725;28;20603;-64
2023/11/30 00:46:14;;;;;;;13.63;5.30;;;1.00;99.90;;;;;;5046040;28;20208;-61
2023/11/30 00:48:43;;;;;;;11.85;4.82;;;0.90;99.90;;;;;;5055772;28;20206;-57
2023/11/30 00:51:11;;;;;;;11.02;4.45;;;0.70;99.90;;;;;;5047631;28;20228;-63
2023/11/30 00:53:41;;;;;;;11.35;5.57;;;0.70;99.90;;;;;;5047779;28;20279;-61
2023/11/30 00:56:11;;;;;;;12.18;5.05;;;0.60;99.90;;;;;;5047678;28;20291;-61
2023/11/30 00:58:39;;;;;;;12.77;4.75;;;0.50;99.90;;;;;;5054180;28;20217;-62
2023/11/30 01:01:07;;;;;;;11.40;4.95;;;0.60;99.90;;;;;;5051430;28;20219;-64
2023/11/30 01:03:35;;;;;;;12.60;5.18;;;0.70;99.90;;;;;;5047754;28;20207;-61
2023/11/30 01:06:04;;;;;;;11.13;5.22;;;0.70;99.90;;;;;;5052223;28;20269;-63
2023/11/30 01:08:32;;;;;;;12.88;5.28;;;0.60;99.90;;;;;;5047749;28;20242;-61
2023/11/30 01:11:02;;;;;;;10.30;4.80;;;0.50;99.90;;;;;;5047154;28;20392;-62
2023/11/30 01:13:30;;;;;;;11.15;5.22;;;0.40;99.90;;;;;;5047454;28;20708;-62
2023/11/30 01:15:58;;;;;;;11.85;5.60;;;0.30;99.90;;;;;;5047223;28;20286;-56
2023/11/30 01:18:26;;;;;;;12.07;5.55;;;0.40;99.90;;;;;;5047883;28;20211;-57
2023/11/30 01:20:54;;;;;;;12.20;5.25;;;0.50;99.90;;;;;;5047563;28;20237;-58
2023/11/30 01:23:22;;;;;;;11.02;5.10;;;0.50;99.90;;;;;;5047782;28;20237;-63
2023/11/30 01:25:50;;;;;;;12.63;6.13;;;0.40;99.90;;;;;;5046489;28;20643;-58
2023/11/30 01:28:20;;;;;;;11.45;5.30;;;0.40;99.90;;;;;;5046414;28;20206;-63
2023/11/30 01:30:48;;;;;;;12.20;5.13;;;0.30;99.90;;;;;;5054420;28;20232;-58
2023/11/30 01:33:15;;;;;;;13.20;6.22;;;0.40;99.90;;;;;;5046410;28;20210;-60
2023/11/30 01:35:44;;;;;;;11.43;5.40;;;0.50;99.90;;;;;;5045656;28;20759;-63
2023/11/30 01:38:12;;;;;;;12.30;5.88;;;0.50;99.90;;;;;;5044140;28;20225;-62
2023/11/30 01:40:40;;;;;;;9.70;5.00;;;0.50;99.90;;;;;;5044798;28;20227;-62
2023/11/30 01:43:08;;;;;;;16.20;5.20;;;0.50;99.90;;;;;;5046323;28;20225;-64
2023/11/30 01:45:37;;;;;;;12.77;5.25;;;0.40;99.90;;;;;;5045093;28;20629;-64
2023/11/30 01:48:06;;;;;;;12.50;5.30;;;0.30;99.90;;;;;;5046350;28;20245;-65
2023/11/30 01:50:34;;;;;;;11.30;5.30;;;0.20;99.90;;;;;;5045552;28;20727;-64
2023/11/30 01:53:03;;;;;;;13.18;5.57;;;0.00;99.90;;;;;;5046075;28;20291;-61
2023/11/30 01:55:31;;;;;;;13.35;6.15;;;0.10;99.90;;;;;;5044649;28;20218;-59
2023/11/30 01:57:59;;;;;;;15.20;5.63;;;0.00;99.90;;;;;;5047172;28;20230;-64
2023/11/30 02:00:31;;;;;;;11.13;5.63;;;-0.20;99.90;;;;;;5046895;28;20229;-61
2023/11/30 02:03:01;;;;;;;14.00;6.15;;;-0.30;99.90;;;;;;5047227;28;20224;-62
2023/11/30 02:05:30;;;;;;;17.13;6.07;;;-0.40;99.90;;;;;;5046170;28;20298;-62
2023/11/30 02:07:58;;;;;;;13.80;5.97;;;-0.40;99.90;;;;;;5046117;28;20247;-61
2023/11/30 02:10:26;;;;;;;14.20;7.05;;;-0.50;99.90;;;;;;5049051;28;20325;-64
2023/11/30 02:12:54;;;;;;;15.98;6.78;;;-0.50;99.90;;;;;;5049918;28;20299;-59
2023/11/30 02:15:23;;;;;;;15.10;7.57;;;-0.40;99.90;;;;;;5048881;28;20207;-59
2023/11/30 02:17:51;;;;;;;14.00;6.65;;;-0.30;99.90;;;;;;5049323;28;20635;-64
2023/11/30 02:20:20;;;;;;;13.82;6.45;;;-0.30;99.90;;;;;;5049274;28;20310;-57
2023/11/30 02:22:50;;;;;;;14.43;6.90;;;-0.40;99.90;;;;;;5049654;28;20662;-61
2023/11/30 02:25:18;;;;;;;13.32;6.55;;;-0.50;99.90;;;;;;5048582;28;20685;-61
2023/11/30 02:27:46;;;;;;;13.50;6.07;;;-0.60;99.90;;;;;;5049083;28;20217;-61
2023/11/30 02:30:14;;;;;;;15.10;6.75;;;-0.60;99.90;;;;;;5048342;28;20225;-63
2023/11/30 02:32:42;;;;;;;14.65;6.05;;;-0.60;99.90;;;;;;5049276;28;20236;-61
2023/11/30 02:35:10;;;;;;;14.80;6.63;;;-0.70;99.90;;;;;;5048288;28;20212;-61
2023/11/30 02:37:38;;;;;;;13.23;5.75;;;-0.70;99.90;;;;;;5050753;28;20599;-55
2023/11/30 02:40:09;;;;;;;12.93;6.97;;;-0.80;99.90;;;;;;5049931;28;20225;-60
2023/11/30 02:42:37;;;;;;;12.30;6.30;;;-0.80;99.90;;;;;;5050340;28;20248;-60
2023/11/30 02:45:06;;;;;;;14.48;7.43;;;-0.90;99.90;;;;;;5049390;28;20213;-63
2023/11/30 02:47:34;;;;;;;13.77;6.85;;;-1.00;99.90;;;;;;5050073;28;20679;-63
2023/11/30 02:50:02;;;;;;;12.88;6.65;;;-1.00;99.90;;;;;;5049442;28;20667;-64
2023/11/30 02:52:29;;;;;;;12.52;5.55;;;-1.00;99.90;;;;;;5050241;28;20199;-64
2023/11/30 02:54:57;;;;;;;13.25;6.70;;;-0.90;99.90;;;;;;5049362;28;20237;-67
2023/11/30 02:57:27;;;;;;;15.15;6.50;;;-0.80;99.90;;;;;;5050209;28;20209;-67
2023/11/30 02:59:55;;;;;;;12.98;6.47;;;-0.80;99.90;;;;;;5049372;28;20221;-65
2023/11/30 03:02:23;;;;;;;12.30;5.85;;;-0.80;99.90;;;;;;5048815;28;20205;-66
2023/11/30 03:04:53;;;;;;;12.18;5.80;;;-0.70;99.90;;;;;;5049208;28;20643;-65
2023/11/30 03:07:21;;;;;;;11.70;5.90;;;-0.80;99.90;;;;;;5050136;28;20567;-66
2023/11/30 03:09:49;;;;;;;12.43;6.22;;;-0.90;99.90;;;;;;5049511;28;20753;-66
2023/11/30 03:12:17;;;;;;;12.38;5.78;;;-0.80;99.90;;;;;;5050035;28;20634;-66
2023/11/30 03:14:47;;;;;;;14.05;5.53;;;-0.70;99.90;;;;;;5049085;28;20316;-66
2023/11/30 03:17:15;;;;;;;10.98;5.72;;;-0.80;99.90;;;;;;5049814;28;20315;-66
2023/11/30 03:19:44;;;;;;;12.43;6.18;;;-0.70;99.90;;;;;;5048523;28;20205;-65
2023/11/30 03:22:12;;;;;;;15.23;6.80;;;-0.70;99.90;;;;;;5049350;28;20210;-65
2023/11/30 03:24:40;;;;;;;17.10;6.03;;;-0.60;99.90;;;;;;5048791;28;20391;-66
2023/11/30 03:27:11;;;;;;;12.80;5.95;;;-0.70;99.90;;;;;;5049794;28;20206;-66
2023/11/30 03:29:40;;;;;;;12.95;6.63;;;-0.70;99.90;;;;;;5048786;28;20237;-66
2023/11/30 03:32:09;;;;;;;12.38;5.20;;;-0.70;99.90;;;;;;5049844;28;20230;-66
2023/11/30 03:34:37;;;;;;;13.90;5.95;;;-0.60;99.90;;;;;;5048845;28;20205;-66
2023/11/30 03:37:05;;;;;;;12.60;5.60;;;-0.60;99.90;;;;;;5053951;28;20204;-66
2023/11/30 03:39:33;;;;;;;11.98;6.10;;;-0.60;99.90;;;;;;5051245;28;20201;-65
2023/11/30 03:42:01;;;;;;;14.02;7.35;;;-0.60;99.90;;;;;;5049077;28;20311;-64
2023/11/30 03:44:29;;;;;;;15.93;6.47;;;-0.40;99.90;;;;;;5048316;28;20658;-64
2023/11/30 03:46:57;;;;;;;12.93;6.78;;;-0.40;99.90;;;;;;5049354;28;20737;-66
2023/11/30 03:49:27;;;;;;;14.75;6.50;;;-0.50;99.90;;;;;;5048399;28;20213;-66
2023/11/30 03:51:55;;;;;;;14.43;6.78;;;-0.40;99.90;;;;;;5048664;28;20233;-66
2023/11/30 03:54:23;;;;;;;16.40;8.00;;;-0.40;99.90;;;;;;5047638;28;20313;-68
2023/11/30 03:56:51;;;;;;;16.80;8.45;;;-0.30;99.90;;;;;;5048601;28;20826;-67
2023/11/30 03:59:19;;;;;;;16.33;7.22;;;-0.20;99.90;;;;;;5048282;28;20286;-65
2023/11/30 04:01:47;;;;;;;14.20;8.20;;;-0.10;99.90;;;;;;5049105;28;20271;-66
2023/11/30 04:04:15;;;;;;;15.05;8.18;;;-0.20;99.90;;;;;;5048153;28;20229;-66
2023/11/30 04:06:44;;;;;;;17.67;7.32;;;-0.20;99.90;;;;;;5048640;28;20211;-64
2023/11/30 04:09:12;;;;;;;15.93;7.35;;;-0.20;99.90;;;;;;5047966;28;20663;-67
2023/11/30 04:11:40;;;;;;;20.80;8.45;;;-0.30;99.90;;;;;;5048220;28;20746;-67
2023/11/30 04:14:08;;;;;;;14.10;7.72;;;-0.20;99.90;;;;;;5047690;28;20288;-66
2023/11/30 04:16:37;;;;;;;13.25;7.50;;;-0.20;99.90;;;;;;5048425;28;20264;-64
2023/11/30 04:19:05;;;;;;;15.02;7.25;;;-0.30;99.90;;;;;;5048018;28;20205;-66
2023/11/30 04:21:33;;;;;;;13.18;7.03;;;-0.40;99.90;;;;;;5048092;28;20321;-65
2023/11/30 04:24:02;;;;;;;15.00;6.55;;;-0.30;99.90;;;;;;5047783;28;20225;-66
2023/11/30 04:26:30;;;;;;;12.60;6.20;;;-0.30;99.90;;;;;;5048300;28;20306;-63
2023/11/30 04:28:58;;;;;;;13.77;6.28;;;-0.30;99.90;;;;;;5048058;28;20206;-68
2023/11/30 04:31:26;;;;;;;18.60;7.45;;;-0.20;99.90;;;;;;5047091;28;20222;-66
2023/11/30 04:33:54;;;;;;;15.13;6.40;;;-0.30;99.90;;;;;;5046500;28;20244;-65
2023/11/30 04:36:22;;;;;;;12.88;6.60;;;-0.20;99.90;;;;;;5046884;28;20225;-67
2023/11/30 04:38:50;;;;;;;13.02;5.93;;;-0.10;99.90;;;;;;5046436;28;20284;-69
2023/11/30 04:41:19;;;;;;;13.15;6.38;;;-0.20;99.90;;;;;;5046709;28;20262;-65
2023/11/30 04:43:47;;;;;;;12.23;6.10;;;-0.30;99.90;;;;;;5046646;28;20226;-66
2023/11/30 04:46:15;;;;;;;13.95;6.10;;;-0.20;99.90;;;;;;5046250;28;20218;-64
2023/11/30 04:48:43;;;;;;;11.20;5.85;;;-0.10;99.90;;;;;;5046722;28;20567;-65
2023/11/30 04:51:11;;;;;;;11.60;5.28;;;-0.20;99.90;;;;;;5046637;28;20230;-67
2023/11/30 04:53:39;;;;;;;14.15;6.35;;;-0.10;99.90;;;;;;5046651;28;20212;-66
2023/11/30 04:56:08;;;;;;;15.30;5.95;;;-0.20;99.90;;;;;;5046187;28;20246;-67
2023/11/30 04:58:37;;;;;;;17.33;6.47;;;-0.20;99.90;;;;;;5046558;28;20296;-65
2023/11/30 05:01:06;;;;;;;11.95;5.65;;;-0.20;99.90;;;;;;5045189;28;20226;-68
2023/11/30 05:03:34;;;;;;;14.38;6.10;;;-0.30;99.90;;;;;;5047748;28;20297;-66
2023/11/30 05:06:02;;;;;;;12.02;5.70;;;-0.50;99.90;;;;;;5047169;28;20211;-67
2023/11/30 05:08:30;;;;;;;12.00;5.50;;;-0.50;99.90;;;;;;5047645;28;20208;-65
2023/11/30 05:10:59;;;;;;;14.15;6.50;;;-0.60;99.90;;;;;;5045757;28;20221;-66
2023/11/30 05:13:27;;;;;;;13.15;5.95;;;-0.70;99.90;;;;;;5046363;28;20295;-65
2023/11/30 05:15:58;;;;;;;12.48;5.78;;;-0.80;99.90;;;;;;5045802;28;20256;-65
2023/11/30 05:18:26;;;;;;;14.80;5.43;;;-0.70;99.90;;;;;;5047355;28;20209;-65
2023/11/30 05:20:54;;;;;;;13.05;6.30;;;-0.80;99.90;;;;;;5047358;28;20236;-64
2023/11/30 05:23:22;;;;;;;14.13;6.57;;;-0.70;99.90;;;;;;5047015;28;20210;-64
2023/11/30 05:25:50;;;;;;;11.95;6.03;;;-0.80;99.90;;;;;;5045495;28;20242;-67
2023/11/30 05:28:18;;;;;;;14.10;7.15;;;-0.90;99.90;;;;;;5046572;28;20258;-65
2023/11/30 05:30:46;;;;;;;13.13;6.97;;;-0.80;99.90;;;;;;5045862;28;20229;-65
2023/11/30 05:33:16;;;;;;;12.23;5.82;;;-0.80;99.90;;;;;;5046526;28;20290;-66
2023/11/30 05:35:44;;;;;;;13.50;6.75;;;-0.80;99.90;;;;;;5045443;28;20205;-65
2023/11/30 05:38:12;;;;;;;12.32;6.32;;;-0.70;99.90;;;;;;5047605;28;20278;-70
2023/11/30 05:40:39;;;;;;;11.48;5.65;;;-0.60;99.90;;;;;;5044767;28;20770;-68
2023/11/30 05:43:07;;;;;;;15.27;6.20;;;-0.60;99.90;;;;;;5047681;28;20207;-66
2023/11/30 05:45:35;;;;;;;12.80;7.05;;;-0.60;99.90;;;;;;5049860;28;20255;-68
2023/11/30 05:48:04;;;;;;;12.85;6.47;;;-0.60;99.90;;;;;;5051147;28;20264;-69
2023/11/30 05:50:33;;;;;;;11.32;6.32;;;-0.60;99.90;;;;;;5050961;28;20606;-70
2023/11/30 05:53:01;;;;;;;14.13;6.80;;;-0.50;99.90;;;;;;5052108;28;20204;-69
2023/11/30 05:55:29;;;;;;;16.13;7.70;;;-0.60;99.90;;;;;;5050630;28;20205;-70
2023/11/30 05:57:57;;;;;;;13.23;7.25;;;-0.50;99.90;;;;;;5050352;28;20201;-69
2023/11/30 06:00:26;;;;;;;15.70;6.88;;;-0.60;99.90;;;;;;5050192;28;20842;-68
2023/11/30 06:02:54;;;;;;;17.23;7.20;;;-0.50;99.90;;;;;;5051125;28;20209;-65
2023/11/30 06:05:22;;;;;;;15.35;7.28;;;-0.60;99.90;;;;;;5048668;28;20264;-66
2023/11/30 06:07:51;;;;;;;13.18;6.40;;;-0.60;99.90;;;;;;5050377;28;20212;-68
2023/11/30 06:10:21;;;;;;;13.95;6.10;;;-0.70;99.90;;;;;;5050108;28;20221;-65
2023/11/30 06:12:49;;;;;;;13.85;7.32;;;-0.60;99.90;;;;;;5049709;28;20197;-69
2023/11/30 06:15:17;;;;;;;15.77;6.88;;;-0.50;99.90;;;;;;5050022;28;20201;-68
2023/11/30 06:17:45;;;;;;;15.63;6.20;;;-0.50;99.90;;;;;;5049656;28;20267;-71
2023/11/30 06:20:14;;;;;;;13.20;5.80;;;-0.60;99.90;;;;;;5045117;28;20251;-68
2023/11/30 06:22:42;;;;;;;13.30;5.70;;;-0.70;99.90;;;;;;5044341;28;20266;-71
2023/11/30 06:25:11;;;;;;;14.90;6.10;;;-0.60;99.90;;;;;;5046399;28;20220;-70
2023/11/30 06:27:39;;;;;;;14.43;6.13;;;-0.60;99.90;;;;;;5048520;28;20202;-70
2023/11/30 06:30:08;;;;;;;16.05;6.63;;;-0.60;99.90;;;;;;5050239;28;20224;-70
2023/11/30 06:32:36;;;;;;;14.30;6.00;;;-0.50;99.90;;;;;;5050200;28;20243;-68
2023/11/30 06:35:05;;;;;;;14.45;5.55;;;-0.40;99.90;;;;;;5049817;28;20205;-71
2023/11/30 06:37:33;;;;;;;13.75;5.55;;;-0.50;99.90;;;;;;5031742;28;20206;-72
2023/11/30 06:40:01;;;;;;;13.23;5.30;;;-0.50;99.90;;;;;;5049933;28;20212;-67
2023/11/30 06:42:31;;;;;;;12.00;4.90;;;-0.50;99.90;;;;;;5058312;28;20235;-69
2023/11/30 06:44:59;;;;;;;14.07;6.43;;;-0.50;99.90;;;;;;5041627;28;20249;-67
2023/11/30 06:47:28;;;;;;;14.63;6.38;;;-0.60;99.90;;;;;;5049257;28;20797;-68
2023/11/30 06:49:56;;;;;;;15.38;6.50;;;-0.70;99.90;;;;;;5048791;28;20220;-66
2023/11/30 06:52:24;;;;;;;11.68;5.70;;;-0.60;99.90;;;;;;5049087;28;20564;-63
2023/11/30 06:54:53;;;;;;;13.05;5.20;;;-0.60;99.90;;;;;;5048156;28;20205;-70
2023/11/30 06:57:21;;;;;;;12.82;5.65;;;-0.50;99.90;;;;;;5049255;28;20552;-67
2023/11/30 06:59:50;;;;;;;13.57;5.68;;;-0.50;99.90;;;;;;5048085;28;20217;-70
2023/11/30 07:02:18;;;;;;;12.20;5.60;;;-0.50;99.90;;;;;;5047339;28;20189;-65
2023/11/30 07:04:46;;;;;;;12.85;6.05;;;-0.40;99.90;;;;;;5047228;28;20229;-67
2023/11/30 07:07:14;;;;;;;11.15;4.85;;;-0.40;99.90;;;;;;5047704;28;20268;-67
2023/11/30 07:09:58;;;;;;;11.45;5.45;;;-0.30;99.90;;;;;;5047413;28;20254;-66
2023/11/30 07:12:26;;;;;;;12.02;5.47;;;-0.20;99.90;;;;;;5048248;28;20598;-69
2023/11/30 07:14:55;;;;;;;12.13;5.55;;;-0.20;99.90;;;;;;5048398;28;20214;-66
2023/11/30 07:17:23;;;;;;;10.88;5.10;;;-0.20;99.90;;;;;;5043936;28;20742;-67
2023/11/30 07:19:52;;;;;;;13.18;5.22;;;-0.10;99.90;;;;;;5047607;28;20241;-65
2023/11/30 07:22:24;;;;;;;11.43;5.03;;;-0.20;99.90;;;;;;5048187;28;20252;-69
2023/11/30 07:24:52;;;;;;;11.48;5.45;;;-0.30;99.90;;;;;;5044787;28;20224;-67
2023/11/30 07:27:21;;;;;;;10.60;5.30;;;-0.40;99.90;;;;;;5046097;28;20226;-68
2023/11/30 07:29:49;;;;;;;11.60;4.97;;;-0.40;99.90;;;;;;5045981;28;20231;-71
2023/11/30 07:32:18;;;;;;;13.40;5.28;;;-0.30;99.90;;;;;;5046121;28;20201;-66
2023/11/30 07:34:46;;;;;;;11.77;5.38;;;-0.20;99.90;;;;;;5045905;28;20205;-68
2023/11/30 07:37:16;;;;;;;12.63;5.60;;;0.00;99.90;;;;;;5046591;28;20730;-66
2023/11/30 07:39:44;;;;;;;12.98;6.22;;;0.00;99.90;;;;;;5048118;28;20616;-66
2023/11/30 07:42:16;;;;;;;12.25;5.60;;;0.00;99.90;;;;;;5047006;28;20244;-65
2023/11/30 07:44:59;;;;;;;13.20;6.03;;;0.10;99.90;;;;;;5047874;28;20566;-67
2023/11/30 07:47:28;;;;;;;11.63;5.20;;;0.10;99.90;;;;;;5047262;28;20556;-65
2023/11/30 07:49:56;;;;;;;13.02;6.60;;;0.30;99.90;;;;;;5048909;28;20212;-66
2023/11/30 07:52:24;;;;;;;14.05;6.93;;;0.40;99.90;;;;;;5048191;28;20198;-66
2023/11/30 07:54:52;;;;;;;13.60;5.85;;;0.60;99.90;;;;;;5049248;28;20199;-67
2023/11/30 07:57:20;;;;;;;13.82;5.88;;;0.70;99.90;;;;;;5050168;28;20671;-67
2023/11/30 07:59:49;;;;;;;12.02;6.07;;;0.60;99.90;;;;;;5050162;28;20221;-67
2023/11/30 08:02:17;;;;;;;11.10;4.70;;;0.70;99.90;;;;;;5049927;28;20231;-67
2023/11/30 08:04:46;;;;;;;11.45;5.30;;;0.70;99.90;;;;;;5049086;28;20207;-67
2023/11/30 08:07:14;;;;;;;10.95;5.03;;;0.70;99.90;;;;;;5048985;28;20220;-68
2023/11/30 08:09:42;;;;;;;11.80;5.28;;;0.90;99.90;;;;;;5049117;28;20218;-69
2023/11/30 08:12:10;;;;;;;11.48;4.97;;;0.90;99.90;;;;;;5049733;28;20326;-69
2023/11/30 08:14:38;;;;;;;10.82;4.85;;;1.10;99.90;;;;;;5048558;28;20204;-69
2023/11/30 08:17:06;;;;;;;11.03;5.17;;;1.10;99.90;;;;;;5049582;28;20201;-67
2023/11/30 08:19:34;;;;;;;12.73;5.57;;;1.20;99.90;;;;;;5046021;28;20446;-68
2023/11/30 08:22:05;;;;;;;13.30;6.40;;;1.20;99.90;;;;;;5046832;28;20929;-69
2023/11/30 08:24:33;;;;;;;12.93;5.70;;;1.30;99.90;;;;;;5048412;28;20945;-69
2023/11/30 08:27:02;;;;;;;12.00;6.68;;;1.30;99.90;;;;;;5048949;28;20538;-69
2023/11/30 08:29:30;;;;;;;13.10;6.77;;;1.50;99.90;;;;;;5048657;28;20334;-69
2023/11/30 08:31:58;;;;;;;11.50;6.13;;;1.60;99.90;;;;;;5048840;28;20563;-66
2023/11/30 08:34:26;;;;;;;14.83;6.50;;;1.80;99.90;;;;;;5048538;28;20919;-66
2023/11/30 08:36:54;;;;;;;12.10;5.20;;;1.90;99.90;;;;;;5048965;28;20436;-67
2023/11/30 08:39:23;;;;;;;11.33;5.80;;;1.90;99.90;;;;;;5048577;28;20501;-66
2023/11/30 08:41:53;;;;;;;12.57;5.90;;;1.90;99.90;;;;;;5048877;28;20464;-67
2023/11/30 08:44:22;;;;;;;13.20;5.20;;;1.90;99.90;;;;;;5048132;28;20490;-69
2023/11/30 08:46:50;;;;;;;12.10;5.80;;;2.00;99.90;;;;;;5048465;28;20536;-68
2023/11/30 08:49:18;;;;;;;13.30;6.17;;;2.00;99.90;;;;;;5047724;28;21030;-67
2023/11/30 08:51:46;;;;;;;12.80;5.90;;;2.00;99.90;;;;;;5048515;28;20463;-68
2023/11/30 08:54:14;;;;;;;11.93;5.23;;;2.10;99.90;;;;;;5047046;28;20451;-67
2023/11/30 08:56:44;;;;;;;11.10;4.97;;;2.10;99.90;;;;;;5047676;28;20436;-67
2023/11/30 08:59:12;;;;;;;11.90;5.20;;;2.30;99.90;;;;;;5046888;28;20987;-69
2023/11/30 09:01:40;;;;;;;12.23;4.90;;;2.40;99.90;;;;;;5047449;28;20471;-67
2023/11/30 09:04:08;;;;;;;11.10;4.57;;;2.30;99.90;;;;;;5045922;28;20461;-66
2023/11/30 09:06:37;;;;;;;11.57;5.37;;;2.40;99.90;;;;;;5046946;28;20479;-67
2023/11/30 09:09:05;;;;;;;11.63;5.00;;;2.60;99.90;;;;;;5044567;28;20486;-67
2023/11/30 09:11:34;;;;;;;10.50;5.33;;;2.50;99.90;;;;;;5046999;28;20456;-66
2023/11/30 09:14:03;;;;;;;12.00;5.60;;;2.60;99.90;;;;;;5046070;28;20504;-69
2023/11/30 09:16:31;;;;;;;13.80;6.43;;;2.60;99.90;;;;;;5047079;28;20925;-71
2023/11/30 09:18:59;;;;;;;13.20;5.60;;;2.60;99.90;;;;;;5047281;28;20460;-68
2023/11/30 09:21:27;;;;;;;12.40;5.40;;;2.50;99.90;;;;;;5049280;28;20595;-62
2023/11/30 09:23:56;;;;;;;14.50;6.47;;;2.50;99.90;;;;;;5051306;28;20459;-70
2023/11/30 09:26:24;;;;;;;10.67;4.40;;;2.50;99.90;;;;;;5051346;28;20525;-66
2023/11/30 09:28:52;;;;;;;11.53;5.37;;;2.60;99.90;;;;;;5051638;28;20531;-67
2023/11/30 09:31:22;;;;;;;10.97;5.43;;;2.70;99.90;;;;;;5052005;28;20532;-67
2023/11/30 09:33:50;;;;;;;13.83;6.60;;;2.60;99.90;;;;;;5051972;28;20488;-66
2023/11/30 09:36:18;;;;;;;14.37;6.50;;;2.50;99.90;;;;;;5051168;28;20522;-66
2023/11/30 09:38:46;;;;;;;10.60;4.73;;;2.50;99.90;;;;;;5051218;28;20862;-66
2023/11/30 09:41:17;;;;;;;11.80;5.70;;;2.60;99.90;;;;;;5051391;28;20468;-70
2023/11/30 09:43:46;;;;;;;10.10;5.43;;;2.70;99.90;;;;;;5051267;28;20483;-70
2023/11/30 09:46:14;;;;;;;11.10;6.30;;;2.70;99.90;;;;;;5051200;28;20514;-71
2023/11/30 09:48:43;;;;;;;16.47;7.30;;;2.90;99.90;;;;;;5051000;28;20531;-68
2023/11/30 09:51:13;;;;;;;11.93;5.73;;;3.00;99.90;;;;;;5050126;28;20521;-69
2023/11/30 09:53:41;;;;;;;12.03;6.17;;;3.00;99.90;;;;;;5050889;28;20460;-67
2023/11/30 09:56:11;;;;;;;15.13;5.70;;;2.90;99.90;;;;;;5049862;28;20439;-67
2023/11/30 09:58:40;;;;;;;12.03;5.67;;;2.80;99.90;;;;;;5050018;28;20944;-67
2023/11/30 10:01:08;;;;;;;13.70;6.87;;;2.70;99.90;;;;;;5048170;28;20491;-70
2023/11/30 10:03:37;;;;;;;13.07;6.07;;;2.70;99.90;;;;;;5049950;28;20433;-66
2023/11/30 10:06:08;;;;;;;14.80;6.23;;;2.60;99.90;;;;;;5048530;28;20449;-70
2023/11/30 10:08:36;;;;;;;12.13;6.10;;;2.70;99.90;;;;;;5050526;28;20454;-71
2023/11/30 10:11:04;;;;;;;12.83;5.93;;;2.90;99.90;;;;;;5049573;28;20517;-70
2023/11/30 10:13:32;;;;;;;11.70;5.10;;;2.90;99.90;;;;;;5049613;28;20449;-70
2023/11/30 10:16:00;;;;;;;11.97;6.30;;;2.90;99.90;;;;;;5049147;28;20469;-71
2023/11/30 10:18:30;;;;;;;14.03;5.93;;;2.90;99.90;;;;;;5048609;28;20467;-68
2023/11/30 10:20:58;;;;;;;13.00;6.10;;;3.00;99.90;;;;;;5050182;28;20459;-70
2023/11/30 10:23:29;;;;;;;16.10;6.90;;;3.30;99.90;;;;;;5050435;28;20899;-70
2023/11/30 10:25:58;;;;;;;14.67;6.60;;;3.50;99.90;;;;;;5049701;28;20436;-70
2023/11/30 10:28:25;;;;;;;12.70;6.60;;;3.60;99.90;;;;;;5050555;28;20484;-69
2023/11/30 10:30:55;;;;;;;13.50;6.80;;;3.60;99.90;;;;;;5049792;28;20497;-68
2023/11/30 10:33:24;;;;;;;15.27;6.93;;;3.80;99.90;;;;;;5044774;28;20444;-69
2023/11/30 10:35:53;;;;;;;11.97;6.27;;;4.00;99.90;;;;;;5049972;28;20454;-68
2023/11/30 10:38:27;;;;;;;12.00;6.20;;;4.10;99.90;;;;;;5044264;28;20458;-66
2023/11/30 10:41:01;;;;;;;16.43;7.50;;;4.20;99.90;;;;;;5049794;28;20465;-69
2023/11/30 10:43:32;;;;;;;16.73;8.10;;;4.40;99.90;;;;;;5050308;28;20507;-67
2023/11/30 10:46:02;;;;;;;16.60;8.13;;;4.50;99.90;;;;;;5049205;28;20543;-68
2023/11/30 10:48:31;;;;;;;13.93;8.77;;;4.70;99.90;;;;;;5050167;28;20846;-68
2023/11/30 10:51:00;;;;;;;15.83;7.97;;;4.90;99.90;;;;;;5049514;28;20478;-68
2023/11/30 10:53:50;;;;;;;16.53;8.20;;;5.00;99.90;;;;;;5050385;28;20458;-64
2023/11/30 10:56:22;;;;;;;14.00;8.33;;;5.10;99.90;;;;;;5049830;28;20454;-66
2023/11/30 10:58:50;;;;;;;14.53;7.60;;;5.20;99.90;;;;;;5050204;28;20457;-67
2023/11/30 11:01:18;;;;;;;15.17;7.20;;;5.30;99.90;;;;;;5049305;28;20464;-67
2023/11/30 11:03:47;;;;;;;17.33;8.77;;;5.60;99.90;;;;;;5049726;28;20984;-65
2023/11/30 11:06:16;;;;;;;13.63;7.37;;;5.70;99.90;;;;;;5049519;28;20460;-68
2023/11/30 11:08:59;;;;;;;14.37;7.67;;;5.80;99.90;;;;;;5048339;28;20488;-68
2023/11/30 11:11:30;;;;;;;12.83;6.40;;;6.10;99.90;;;;;;5046210;28;20809;-64
2023/11/30 11:14:00;;;;;;;13.50;7.37;;;6.30;99.90;;;;;;5048569;28;20489;-67
2023/11/30 11:16:36;;;;;;;14.27;7.53;;;6.60;99.90;;;;;;5049687;28;20809;-65
2023/11/30 11:19:05;;;;;;;13.00;7.70;;;6.60;99.90;;;;;;5049201;28;20436;-69
2023/11/30 11:21:38;;;;;;;12.63;7.37;;;6.70;99.90;;;;;;5050133;28;20472;-67
2023/11/30 11:24:08;;;;;;;14.53;7.93;;;6.80;99.90;;;;;;5049428;28;20532;-68
2023/11/30 11:26:44;;;;;;;13.23;7.80;;;6.90;99.90;;;;;;5049958;28;20985;-69
2023/11/30 11:29:14;;;;;;;15.37;9.13;;;6.90;99.90;;;;;;5048922;28;20795;-68
2023/11/30 11:31:52;;;;;;;17.30;8.10;;;6.90;99.90;;;;;;5050206;28;20492;-69
2023/11/30 11:34:20;;;;;;;15.00;7.90;;;6.90;99.90;;;;;;5049133;28;20436;-65
2023/11/30 11:36:49;;;;;;;17.60;8.17;;;6.90;99.90;;;;;;5049568;28;20498;-68
2023/11/30 11:39:17;;;;;;;13.60;7.20;;;7.00;99.90;;;;;;5051086;28;20801;-65
2023/11/30 11:41:48;;;;;;;14.33;6.77;;;7.00;99.90;;;;;;5048397;28;21400;-68
2023/11/30 11:44:16;;;;;;;12.40;6.77;;;7.00;99.90;;;;;;5047164;28;20615;-68
2023/11/30 11:46:44;;;;;;;13.43;6.63;;;7.00;99.90;;;;;;5048868;28;20873;-66
2023/11/30 11:49:12;;;;;;;13.17;6.77;;;6.90;99.90;;;;;;5048551;28;20554;-65
2023/11/30 11:51:46;;;;;;;12.90;7.57;;;6.80;99.90;;;;;;5048999;28;20557;-66
2023/11/30 11:54:18;;;;;;;12.40;7.90;;;6.60;99.90;;;;;;5047540;28;20490;-69
2023/11/30 11:56:48;;;;;;;12.83;7.07;;;6.70;99.90;;;;;;5048779;28;20446;-69
2023/11/30 11:59:21;;;;;;;12.40;6.80;;;6.60;99.90;;;;;;5047428;28;20452;-70
2023/11/30 12:01:50;;;;;;;11.97;6.90;;;6.50;99.90;;;;;;5044816;28;20456;-69
2023/11/30 12:04:28;;;;;;;15.53;7.03;;;6.60;99.90;;;;;;5046860;28;20520;-67
2023/11/30 12:06:56;;;;;;;12.83;7.03;;;6.60;99.90;;;;;;5047975;28;20456;-67
2023/11/30 12:09:24;;;;;;;12.47;6.93;;;6.80;99.90;;;;;;5047289;28;20481;-66
2023/11/30 12:11:56;;;;;;;11.70;6.63;;;6.60;99.90;;;;;;5047538;28;20498;-63
2023/11/30 12:14:25;;;;;;;14.87;7.43;;;6.70;99.90;;;;;;5046859;28;20441;-65
2023/11/30 12:16:53;;;;;;;13.30;7.83;;;6.70;99.90;;;;;;5047274;28;20429;-68
2023/11/30 12:19:21;;;;;;;16.07;7.70;;;6.50;99.90;;;;;;5046792;28;20510;-68
2023/11/30 12:21:49;;;;;;;15.00;7.50;;;6.30;99.90;;;;;;5047498;28;20516;-66
2023/11/30 12:24:17;;;;;;;14.40;7.83;;;6.30;99.90;;;;;;5046209;28;20472;-69
2023/11/30 12:26:45;;;;;;;13.43;6.90;;;6.20;99.90;;;;;;5046862;28;20448;-70
2023/11/30 12:29:15;;;;;;;15.70;8.27;;;6.10;99.90;;;;;;5044799;28;20491;-68
2023/11/30 12:31:43;;;;;;;16.80;8.77;;;6.10;99.90;;;;;;5047463;28;20518;-71
2023/11/30 12:34:12;;;;;;;14.17;7.50;;;6.10;99.90;;;;;;5047840;28;20455;-68
2023/11/30 12:36:40;;;;;;;15.80;7.40;;;6.00;99.90;;;;;;5048255;28;20444;-68
2023/11/30 12:39:10;;;;;;;13.63;8.03;;;5.80;99.90;;;;;;5045796;28;20490;-69
2023/11/30 12:41:41;;;;;;;13.07;6.67;;;5.60;99.90;;;;;;5048101;28;20486;-66
2023/11/30 12:44:09;;;;;;;14.53;8.30;;;5.40;99.90;;;;;;5045409;28;20479;-69
2023/11/30 12:46:39;;;;;;;15.93;8.27;;;5.20;99.90;;;;;;5047902;28;20517;-66
2023/11/30 12:49:07;;;;;;;15.70;7.37;;;5.20;99.90;;;;;;5047641;28;20487;-68
2023/11/30 12:51:35;;;;;;;13.53;7.30;;;5.10;99.90;;;;;;5047718;28;20471;-69